createdAt,value
2022-12-25T00:03:43.616Z,45.98
2022-12-25T00:08:47.270Z,45.75
2022-12-25T00:13:52.154Z,46.36
2022-12-25T00:18:58.847Z,46.07
2022-12-25T00:24:03.456Z,46.26
2022-12-25T00:29:08.258Z,46.74
2022-12-25T00:34:11.667Z,46.45
2022-12-25T00:39:15.129Z,48.00
2022-12-25T00:44:19.943Z,47.21
2022-12-25T00:49:23.649Z,47.09
2022-12-25T00:54:27.166Z,47.73
2022-12-25T00:59:34.021Z,48.42
2022-12-25T01:04:37.729Z,47.80
2022-12-25T01:09:58.911Z,47.30
2022-12-25T01:15:04.807Z,47.74
2022-12-25T01:20:09.500Z,47.68
2022-12-25T01:25:13.753Z,47.43
2022-12-25T01:30:18.598Z,48.19
2022-12-25T01:35:22.032Z,48.49
2022-12-25T01:40:25.492Z,49.13
2022-12-25T01:45:39.635Z,48.43
2022-12-25T01:50:46.519Z,47.81
2022-12-25T01:55:52.467Z,48.52
2022-12-25T02:00:57.243Z,48.23
2022-12-25T02:06:01.940Z,48.17
2022-12-25T02:11:05.726Z,47.39
2022-12-25T02:16:13.373Z,47.80
2022-12-25T02:21:30.240Z,48.03
2022-12-25T02:26:47.068Z,47.80
2022-12-25T02:31:56.676Z,48.23
2022-12-25T02:37:06.176Z,48.02
2022-12-25T02:42:13.778Z,47.71
2022-12-25T02:47:36.488Z,48.10
2022-12-25T02:52:58.512Z,48.55
2022-12-25T02:58:23.169Z,48.77
2022-12-25T03:03:49.320Z,48.98
2022-12-25T03:09:16.348Z,48.49
2022-12-25T03:14:37.583Z,48.52
2022-12-25T03:20:05.042Z,48.60
2022-12-25T03:25:27.176Z,48.59
2022-12-25T03:30:56.228Z,48.30
2022-12-25T03:36:04.884Z,48.90
2022-12-25T03:41:29.731Z,48.64
2022-12-25T03:46:53.940Z,48.77
2022-12-25T03:52:20.848Z,48.42
2022-12-25T03:57:41.991Z,48.45
2022-12-25T04:03:03.109Z,48.19
2022-12-25T04:08:25.300Z,48.52
2022-12-25T04:13:46.524Z,48.91
2022-12-25T04:19:07.523Z,49.95
2022-12-25T04:24:30.303Z,49.21
2022-12-25T04:29:51.440Z,49.12
2022-12-25T04:35:12.615Z,49.64
2022-12-25T04:40:17.849Z,49.88
2022-12-25T04:45:21.742Z,50.98
2022-12-25T04:50:25.177Z,51.50
2022-12-25T04:55:30.138Z,50.68
2022-12-25T05:00:33.730Z,50.05
2022-12-25T05:05:40.597Z,50.21
2022-12-25T05:10:45.663Z,50.06
2022-12-25T05:15:49.213Z,49.97
2022-12-25T05:20:54.010Z,50.39
2022-12-25T05:25:59.640Z,50.75
2022-12-25T05:31:03.529Z,50.30
2022-12-25T05:36:09.142Z,50.10
2022-12-25T05:41:14.186Z,49.87
2022-12-25T05:46:17.832Z,50.13
2022-12-25T05:51:21.442Z,49.54
2022-12-25T05:56:26.232Z,49.49
2022-12-25T06:01:29.956Z,49.02
2022-12-25T06:06:33.546Z,49.20
2022-12-25T06:11:38.530Z,48.86
2022-12-25T06:16:42.444Z,48.86
2022-12-25T06:21:46.046Z,49.14
2022-12-25T06:26:51.051Z,49.09
2022-12-25T06:31:57.265Z,49.40
2022-12-25T06:37:01.113Z,49.99
2022-12-25T06:42:06.073Z,50.34
2022-12-25T06:47:09.798Z,50.69
2022-12-25T06:52:13.319Z,50.00
2022-12-25T06:57:18.913Z,49.98
2022-12-25T07:02:23.974Z,49.36
2022-12-25T07:07:27.543Z,49.28
2022-12-25T07:12:32.656Z,50.02
2022-12-25T07:17:36.673Z,50.27
2022-12-25T07:22:40.113Z,49.97
2022-12-25T07:27:44.953Z,49.81
2022-12-25T07:32:50.346Z,49.70
2022-12-25T07:37:54.502Z,49.04
2022-12-25T07:42:59.439Z,49.00
2022-12-25T07:48:05.805Z,49.24
2022-12-25T07:53:10.973Z,49.51
2022-12-25T07:58:19.947Z,49.04
2022-12-25T08:03:26.828Z,48.31
2022-12-25T08:08:30.543Z,49.79
2022-12-25T08:13:35.828Z,50.09
2022-12-25T08:18:40.049Z,51.12
2022-12-25T08:23:45.376Z,50.30
2022-12-25T08:28:50.765Z,49.16
2022-12-25T08:33:56.723Z,48.79
2022-12-25T08:39:03.099Z,48.55
2022-12-25T08:44:08.824Z,48.71
2022-12-25T08:49:12.319Z,48.52
2022-12-25T08:54:15.853Z,48.17
2022-12-25T08:59:20.841Z,48.72
2022-12-25T09:04:24.311Z,48.42
2022-12-25T09:09:28.532Z,48.22
2022-12-25T09:14:33.462Z,49.64
2022-12-25T09:19:36.903Z,48.78
2022-12-25T09:24:40.340Z,47.95
2022-12-25T09:29:45.304Z,47.92
2022-12-25T09:34:48.772Z,47.74
2022-12-25T09:39:52.265Z,47.57
2022-12-25T09:45:00.168Z,47.56
2022-12-25T09:50:08.984Z,47.72
2022-12-25T09:55:19.772Z,48.24
2022-12-25T10:00:26.879Z,48.34
2022-12-25T10:05:51.113Z,48.25
2022-12-25T10:11:01.749Z,48.51
2022-12-25T10:16:12.584Z,48.33
2022-12-25T10:21:18.198Z,48.48
2022-12-25T10:26:25.117Z,48.30
2022-12-25T10:31:31.533Z,47.70
2022-12-25T10:36:35.074Z,47.74
2022-12-25T10:41:54.690Z,47.96
2022-12-25T10:47:00.819Z,47.90
2022-12-25T10:52:05.678Z,48.22
2022-12-25T10:57:16.207Z,47.79
2022-12-25T11:02:25.796Z,47.75
2022-12-25T11:07:29.503Z,47.94
2022-12-25T11:12:36.272Z,47.28
2022-12-25T11:17:49.715Z,47.83
2022-12-25T11:22:53.626Z,47.48
2022-12-25T11:28:01.935Z,46.85
2022-12-25T11:33:08.882Z,47.25
2022-12-25T11:38:12.351Z,47.00
2022-12-25T11:43:18.407Z,47.14
2022-12-25T11:48:27.489Z,47.24
2022-12-25T11:53:32.975Z,47.37
2022-12-25T11:58:39.623Z,47.04
2022-12-25T12:03:46.068Z,47.69
2022-12-25T12:08:52.734Z,47.45
2022-12-25T12:14:16.490Z,47.97
2022-12-25T12:19:27.972Z,47.64
2022-12-25T12:24:35.294Z,47.62
2022-12-25T12:29:42.061Z,47.86
2022-12-25T12:34:50.138Z,48.23
2022-12-25T12:39:55.416Z,48.44
2022-12-25T12:45:08.519Z,48.48
2022-12-25T12:50:30.060Z,48.58
2022-12-25T12:55:35.119Z,48.60
2022-12-25T13:00:42.199Z,48.39
2022-12-25T13:05:50.793Z,48.34
2022-12-25T13:11:05.365Z,49.00
2022-12-25T13:16:16.174Z,48.42
2022-12-25T13:21:24.332Z,48.10
2022-12-25T13:26:28.389Z,48.68
2022-12-25T13:31:32.336Z,48.36
2022-12-25T13:36:40.205Z,48.55
2022-12-25T13:42:03.395Z,49.08
2022-12-25T13:47:17.145Z,48.89
2022-12-25T13:52:25.511Z,49.05
2022-12-25T13:57:31.891Z,49.28
2022-12-25T14:02:38.817Z,49.12
2022-12-25T14:07:43.908Z,49.51
2022-12-25T14:12:49.461Z,48.88
2022-12-25T14:17:53.464Z,49.52
2022-12-25T14:23:00.699Z,49.52
2022-12-25T14:28:07.349Z,50.53
2022-12-25T14:33:13.990Z,49.97
2022-12-25T14:38:24.079Z,49.59
2022-12-25T14:43:28.865Z,49.73
2022-12-25T14:48:33.636Z,49.04
2022-12-25T14:53:41.214Z,49.16
2022-12-25T14:58:48.528Z,49.05
2022-12-25T15:03:52.222Z,49.95
2022-12-25T15:08:58.680Z,49.49
2022-12-25T15:14:02.078Z,49.78
2022-12-25T15:19:07.686Z,50.64
2022-12-25T15:24:13.677Z,49.55
2022-12-25T15:29:27.583Z,49.77
2022-12-25T15:34:40.647Z,49.68
2022-12-25T15:39:46.049Z,49.58
2022-12-25T15:44:49.529Z,49.10
2022-12-25T15:49:53.125Z,49.96
2022-12-25T15:54:57.934Z,49.38
2022-12-25T16:00:01.419Z,49.69
2022-12-25T16:05:15.240Z,49.28
2022-12-25T16:10:22.622Z,49.35
2022-12-25T16:15:25.928Z,50.34
2022-12-25T16:20:29.716Z,50.13
2022-12-25T16:25:34.592Z,49.85
2022-12-25T16:30:38.760Z,49.90
2022-12-25T16:35:42.175Z,49.53
2022-12-25T16:40:48.963Z,49.80
2022-12-25T16:45:52.531Z,49.90
2022-12-25T16:50:56.064Z,50.04
2022-12-25T16:56:07.852Z,50.01
2022-12-25T17:01:12.688Z,50.10
2022-12-25T17:06:16.690Z,50.15
2022-12-25T17:11:26.178Z,50.47
2022-12-25T17:16:31.040Z,50.19
2022-12-25T17:21:35.364Z,50.15
2022-12-25T17:26:41.459Z,49.99
2022-12-25T17:31:45.083Z,49.69
2022-12-25T17:36:48.633Z,50.25
2022-12-25T17:41:53.415Z,49.90
2022-12-25T17:46:56.838Z,50.69
2022-12-25T17:52:00.373Z,50.35
2022-12-25T17:57:05.185Z,51.16
2022-12-25T18:02:10.161Z,52.19
2022-12-25T18:07:14.032Z,52.22
2022-12-25T18:12:18.788Z,50.91
2022-12-25T18:17:22.250Z,51.90
2022-12-25T18:22:25.607Z,51.13
2022-12-25T18:27:30.400Z,51.24
2022-12-25T18:32:33.830Z,51.55
2022-12-25T18:37:40.146Z,50.75
2022-12-25T18:42:46.508Z,51.20
2022-12-25T18:47:49.893Z,51.29
2022-12-25T18:52:53.495Z,51.67
2022-12-25T18:57:59.271Z,52.88
2022-12-25T19:03:02.770Z,52.13
2022-12-25T19:08:06.654Z,52.05
2022-12-25T19:13:11.460Z,51.92
2022-12-25T19:18:14.838Z,51.06
2022-12-25T19:23:18.240Z,51.52
2022-12-25T19:28:24.972Z,51.04
2022-12-25T19:33:28.471Z,50.50
2022-12-25T19:38:31.873Z,51.86
2022-12-25T19:43:37.843Z,51.96
2022-12-25T19:48:41.265Z,52.14
2022-12-25T19:53:44.976Z,51.97
2022-12-25T19:58:49.886Z,52.88
2022-12-25T20:03:53.549Z,52.46
2022-12-25T20:08:58.967Z,53.08
2022-12-25T20:14:03.988Z,52.93
2022-12-25T20:19:07.740Z,53.46
2022-12-25T20:24:11.482Z,54.56
2022-12-25T20:29:16.328Z,52.98
2022-12-25T20:34:19.741Z,52.58
2022-12-25T20:39:23.195Z,52.19
2022-12-25T20:44:27.985Z,51.90
2022-12-25T20:49:32.529Z,54.17
2022-12-25T20:54:36.325Z,52.59
2022-12-25T20:59:43.345Z,52.06
2022-12-25T21:04:52.354Z,52.72
2022-12-25T21:09:57.737Z,52.67
2022-12-25T21:15:02.486Z,52.26
2022-12-25T21:20:08.264Z,53.10
2022-12-25T21:25:11.641Z,52.95
2022-12-25T21:30:16.490Z,52.87
2022-12-25T21:35:19.972Z,53.24
2022-12-25T21:40:23.530Z,53.54
2022-12-25T21:45:28.706Z,53.16
2022-12-25T21:50:51.934Z,53.14
2022-12-25T21:56:00.457Z,52.82
2022-12-25T22:01:05.499Z,53.84
2022-12-25T22:06:26.732Z,53.25
2022-12-25T22:11:47.912Z,53.17
2022-12-25T22:17:10.435Z,53.98
2022-12-25T22:22:13.876Z,53.65
2022-12-25T22:27:17.835Z,52.97
2022-12-25T22:32:23.700Z,52.46
2022-12-25T22:37:27.194Z,52.92
2022-12-25T22:42:30.644Z,51.95
2022-12-25T22:47:35.481Z,52.64
2022-12-25T22:52:39.169Z,52.20
2022-12-25T22:57:42.541Z,52.81
2022-12-25T23:02:47.618Z,53.44
2022-12-25T23:07:51.262Z,53.83
2022-12-25T23:13:12.389Z,51.67
2022-12-25T23:18:34.739Z,52.50
2022-12-25T23:23:55.830Z,52.76
2022-12-25T23:29:16.954Z,52.41
2022-12-25T23:34:22.458Z,53.42
2022-12-25T23:39:25.894Z,52.24
2022-12-25T23:44:29.849Z,52.18
2022-12-25T23:49:34.556Z,52.61
2022-12-25T23:54:38.041Z,52.05
2022-12-25T23:59:41.508Z,52.57
